sensor_id;sensor_type;location;lat;lon;timestamp;P1;P2;P0
80396;PMS5003;69721;55.894;-3.052;2023-11-21T00:00:41;0;0;
80396;PMS5003;69721;55.894;-3.052;2023-11-21T00:03:07;0;0;
80396;PMS5003;69721;55.894;-3.052;2023-11-21T00:05:32;0;0;
80396;PMS5003;69721;55.894;-3.052;2023-11-21T00:07:58;0;0;
80396;PMS5003;69721;55.894;-3.052;2023-11-21T00:10:23;1;1;
80396;PMS5003;69721;55.894;-3.052;2023-11-21T00:12:49;1;1;
80396;PMS5003;69721;55.894;-3.052;2023-11-21T00:15:14;1;0;
80396;PMS5003;69721;55.894;-3.052;2023-11-21T00:17:40;2;0;
80396;PMS5003;69721;55.894;-3.052;2023-11-21T00:20:06;0;0;
80396;PMS5003;69721;55.894;-3.052;2023-11-21T00:22:31;0;0;
80396;PMS5003;69721;55.894;-3.052;2023-11-21T00:24:56;1;0;
80396;PMS5003;69721;55.894;-3.052;2023-11-21T00:27:22;0;0;
80396;PMS5003;69721;55.894;-3.052;2023-11-21T00:29:47;2;1;
80396;PMS5003;69721;55.894;-3.052;2023-11-21T00:32:13;1;1;
80396;PMS5003;69721;55.894;-3.052;2023-11-21T00:34:38;0;0;
80396;PMS5003;69721;55.894;-3.052;2023-11-21T00:37:04;3;0;
80396;PMS5003;69721;55.894;-3.052;2023-11-21T00:39:29;0;0;
80396;PMS5003;69721;55.894;-3.052;2023-11-21T00:41:55;0;0;
80396;PMS5003;69721;55.894;-3.052;2023-11-21T00:44:20;0;0;
80396;PMS5003;69721;55.894;-3.052;2023-11-21T00:46:46;0;0;
80396;PMS5003;69721;55.894;-3.052;2023-11-21T00:49:11;0;0;
80396;PMS5003;69721;55.894;-3.052;2023-11-21T00:51:37;0;0;
80396;PMS5003;69721;55.894;-3.052;2023-11-21T00:54:03;0;0;
80396;PMS5003;69721;55.894;-3.052;2023-11-21T00:56:28;0;0;
80396;PMS5003;69721;55.894;-3.052;2023-11-21T00:58:53;0;0;
80396;PMS5003;69721;55.894;-3.052;2023-11-21T01:01:19;1;1;
80396;PMS5003;69721;55.894;-3.052;2023-11-21T01:03:45;1;1;
80396;PMS5003;69721;55.894;-3.052;2023-11-21T01:06:11;0;0;
80396;PMS5003;69721;55.894;-3.052;2023-11-21T01:08:36;0;0;
80396;PMS5003;69721;55.894;-3.052;2023-11-21T01:11:02;2;0;
80396;PMS5003;69721;55.894;-3.052;2023-11-21T01:13:27;0;0;
80396;PMS5003;69721;55.894;-3.052;2023-11-21T01:15:53;0;0;
80396;PMS5003;69721;55.894;-3.052;2023-11-21T01:18:18;2;0;
80396;PMS5003;69721;55.894;-3.052;2023-11-21T01:20:44;0;0;
80396;PMS5003;69721;55.894;-3.052;2023-11-21T01:23:09;0;0;
80396;PMS5003;69721;55.894;-3.052;2023-11-21T01:25:35;0;0;
80396;PMS5003;69721;55.894;-3.052;2023-11-21T01:28:00;0;0;
80396;PMS5003;69721;55.894;-3.052;2023-11-21T01:30:26;0;0;
80396;PMS5003;69721;55.894;-3.052;2023-11-21T01:32:51;0;0;
80396;PMS5003;69721;55.894;-3.052;2023-11-21T01:35:17;0;0;
80396;PMS5003;69721;55.894;-3.052;2023-11-21T01:37:42;0;0;
80396;PMS5003;69721;55.894;-3.052;2023-11-21T01:40:08;0;0;
80396;PMS5003;69721;55.894;-3.052;2023-11-21T01:42:33;1;0;
80396;PMS5003;69721;55.894;-3.052;2023-11-21T01:44:59;0;0;
80396;PMS5003;69721;55.894;-3.052;2023-11-21T01:47:24;0;0;
80396;PMS5003;69721;55.894;-3.052;2023-11-21T01:49:50;1;0;
80396;PMS5003;69721;55.894;-3.052;2023-11-21T01:52:15;0;0;
80396;PMS5003;69721;55.894;-3.052;2023-11-21T01:54:41;0;0;
80396;PMS5003;69721;55.894;-3.052;2023-11-21T01:57:06;0;0;
80396;PMS5003;69721;55.894;-3.052;2023-11-21T01:59:34;0;0;
80396;PMS5003;69721;55.894;-3.052;2023-11-21T02:01:58;0;0;
80396;PMS5003;69721;55.894;-3.052;2023-11-21T02:04:23;0;0;
80396;PMS5003;69721;55.894;-3.052;2023-11-21T02:06:49;0;0;
80396;PMS5003;69721;55.894;-3.052;2023-11-21T02:09:14;0;0;
80396;PMS5003;69721;55.894;-3.052;2023-11-21T02:11:40;0;0;
80396;PMS5003;69721;55.894;-3.052;2023-11-21T02:14:05;2;2;
80396;PMS5003;69721;55.894;-3.052;2023-11-21T02:16:31;0;0;
80396;PMS5003;69721;55.894;-3.052;2023-11-21T02:18:57;0;0;
80396;PMS5003;69721;55.894;-3.052;2023-11-21T02:21:22;0;0;
80396;PMS5003;69721;55.894;-3.052;2023-11-21T02:23:47;0;0;
80396;PMS5003;69721;55.894;-3.052;2023-11-21T02:26:13;0;0;
80396;PMS5003;69721;55.894;-3.052;2023-11-21T02:28:38;1;1;
80396;PMS5003;69721;55.894;-3.052;2023-11-21T02:31:04;0;0;
80396;PMS5003;69721;55.894;-3.052;2023-11-21T02:33:29;0;0;
80396;PMS5003;69721;55.894;-3.052;2023-11-21T02:35:55;0;0;
80396;PMS5003;69721;55.894;-3.052;2023-11-21T02:38:20;0;0;
80396;PMS5003;69721;55.894;-3.052;2023-11-21T02:40:46;0;0;
80396;PMS5003;69721;55.894;-3.052;2023-11-21T02:43:11;0;0;
80396;PMS5003;69721;55.894;-3.052;2023-11-21T02:45:37;2;0;
80396;PMS5003;69721;55.894;-3.052;2023-11-21T02:48:02;0;0;
80396;PMS5003;69721;55.894;-3.052;2023-11-21T02:50:28;1;1;
80396;PMS5003;69721;55.894;-3.052;2023-11-21T02:52:53;0;0;
80396;PMS5003;69721;55.894;-3.052;2023-11-21T02:55:19;1;1;
80396;PMS5003;69721;55.894;-3.052;2023-11-21T02:57:44;0;0;
80396;PMS5003;69721;55.894;-3.052;2023-11-21T03:00:10;0;0;
80396;PMS5003;69721;55.894;-3.052;2023-11-21T03:02:35;0;0;
80396;PMS5003;69721;55.894;-3.052;2023-11-21T03:05:01;0;0;
80396;PMS5003;69721;55.894;-3.052;2023-11-21T03:07:26;0;0;
80396;PMS5003;69721;55.894;-3.052;2023-11-21T03:09:52;0;0;
80396;PMS5003;69721;55.894;-3.052;2023-11-21T03:12:18;0;0;
80396;PMS5003;69721;55.894;-3.052;2023-11-21T03:14:44;0;0;
80396;PMS5003;69721;55.894;-3.052;2023-11-21T03:17:09;0;0;
80396;PMS5003;69721;55.894;-3.052;2023-11-21T03:19:34;0;0;
80396;PMS5003;69721;55.894;-3.052;2023-11-21T03:22:01;0;0;
80396;PMS5003;69721;55.894;-3.052;2023-11-21T03:24:26;0;0;
80396;PMS5003;69721;55.894;-3.052;2023-11-21T03:26:52;2;0;
80396;PMS5003;69721;55.894;-3.052;2023-11-21T03:29:17;0;0;
80396;PMS5003;69721;55.894;-3.052;2023-11-21T03:31:43;1;0;
80396;PMS5003;69721;55.894;-3.052;2023-11-21T03:34:10;0;0;
80396;PMS5003;69721;55.894;-3.052;2023-11-21T03:36:34;2;0;
80396;PMS5003;69721;55.894;-3.052;2023-11-21T03:38:59;0;0;
80396;PMS5003;69721;55.894;-3.052;2023-11-21T03:41:25;2;0;
80396;PMS5003;69721;55.894;-3.052;2023-11-21T03:43:50;0;0;
80396;PMS5003;69721;55.894;-3.052;2023-11-21T03:46:15;0;0;
80396;PMS5003;69721;55.894;-3.052;2023-11-21T03:48:41;0;0;
80396;PMS5003;69721;55.894;-3.052;2023-11-21T03:51:07;4;1;
80396;PMS5003;69721;55.894;-3.052;2023-11-21T03:53:32;1;1;
80396;PMS5003;69721;55.894;-3.052;2023-11-21T03:55:58;0;0;
80396;PMS5003;69721;55.894;-3.052;2023-11-21T03:58:23;1;1;
80396;PMS5003;69721;55.894;-3.052;2023-11-21T04:00:49;0;0;
80396;PMS5003;69721;55.894;-3.052;2023-11-21T04:03:14;1;0;
80396;PMS5003;69721;55.894;-3.052;2023-11-21T04:05:40;0;0;
80396;PMS5003;69721;55.894;-3.052;2023-11-21T04:08:10;0;0;
80396;PMS5003;69721;55.894;-3.052;2023-11-21T04:10:35;0;0;
80396;PMS5003;69721;55.894;-3.052;2023-11-21T04:13:01;0;0;
80396;PMS5003;69721;55.894;-3.052;2023-11-21T04:15:26;0;0;
80396;PMS5003;69721;55.894;-3.052;2023-11-21T04:17:52;0;0;
80396;PMS5003;69721;55.894;-3.052;2023-11-21T04:20:17;0;0;
80396;PMS5003;69721;55.894;-3.052;2023-11-21T04:22:43;1;0;
80396;PMS5003;69721;55.894;-3.052;2023-11-21T04:25:09;0;0;
80396;PMS5003;69721;55.894;-3.052;2023-11-21T04:27:34;1;1;
80396;PMS5003;69721;55.894;-3.052;2023-11-21T04:29:59;1;1;
80396;PMS5003;69721;55.894;-3.052;2023-11-21T04:32:25;1;1;
80396;PMS5003;69721;55.894;-3.052;2023-11-21T04:34:50;2;1;
80396;PMS5003;69721;55.894;-3.052;2023-11-21T04:37:16;1;1;
80396;PMS5003;69721;55.894;-3.052;2023-11-21T04:39:41;0;0;
80396;PMS5003;69721;55.894;-3.052;2023-11-21T04:42:07;2;2;
80396;PMS5003;69721;55.894;-3.052;2023-11-21T04:44:33;1;1;
80396;PMS5003;69721;55.894;-3.052;2023-11-21T04:46:58;0;0;
80396;PMS5003;69721;55.894;-3.052;2023-11-21T04:49:23;4;1;
80396;PMS5003;69721;55.894;-3.052;2023-11-21T04:51:49;2;1;
80396;PMS5003;69721;55.894;-3.052;2023-11-21T04:54:15;4;2;
80396;PMS5003;69721;55.894;-3.052;2023-11-21T04:56:40;1;1;
80396;PMS5003;69721;55.894;-3.052;2023-11-21T04:59:06;1;1;
80396;PMS5003;69721;55.894;-3.052;2023-11-21T05:01:31;2;0;
80396;PMS5003;69721;55.894;-3.052;2023-11-21T05:03:57;0;0;
80396;PMS5003;69721;55.894;-3.052;2023-11-21T05:06:22;2;2;
80396;PMS5003;69721;55.894;-3.052;2023-11-21T05:08:47;0;0;
80396;PMS5003;69721;55.894;-3.052;2023-11-21T05:13:39;0;0;
80396;PMS5003;69721;55.894;-3.052;2023-11-21T05:16:05;1;1;
80396;PMS5003;69721;55.894;-3.052;2023-11-21T05:18:30;1;1;
80396;PMS5003;69721;55.894;-3.052;2023-11-21T05:20:56;0;0;
80396;PMS5003;69721;55.894;-3.052;2023-11-21T05:23:21;3;1;
80396;PMS5003;69721;55.894;-3.052;2023-11-21T05:25:47;1;1;
80396;PMS5003;69721;55.894;-3.052;2023-11-21T05:28:13;4;1;
80396;PMS5003;69721;55.894;-3.052;2023-11-21T05:30:38;2;1;
80396;PMS5003;69721;55.894;-3.052;2023-11-21T05:33:03;1;1;
80396;PMS5003;69721;55.894;-3.052;2023-11-21T05:35:29;2;1;
80396;PMS5003;69721;55.894;-3.052;2023-11-21T05:37:54;3;1;
80396;PMS5003;69721;55.894;-3.052;2023-11-21T05:40:20;1;1;
80396;PMS5003;69721;55.894;-3.052;2023-11-21T05:42:45;3;1;
80396;PMS5003;69721;55.894;-3.052;2023-11-21T05:45:12;2;2;
80396;PMS5003;69721;55.894;-3.052;2023-11-21T05:47:38;4;1;
80396;PMS5003;69721;55.894;-3.052;2023-11-21T05:50:03;2;1;
80396;PMS5003;69721;55.894;-3.052;2023-11-21T05:52:28;0;0;
80396;PMS5003;69721;55.894;-3.052;2023-11-21T05:54:54;1;1;
80396;PMS5003;69721;55.894;-3.052;2023-11-21T05:57:19;3;1;
80396;PMS5003;69721;55.894;-3.052;2023-11-21T05:59:45;3;0;
80396;PMS5003;69721;55.894;-3.052;2023-11-21T06:02:11;1;1;
80396;PMS5003;69721;55.894;-3.052;2023-11-21T06:04:36;0;0;
80396;PMS5003;69721;55.894;-3.052;2023-11-21T06:07:02;2;1;
80396;PMS5003;69721;55.894;-3.052;2023-11-21T06:09:27;2;1;
80396;PMS5003;69721;55.894;-3.052;2023-11-21T06:11:53;3;1;
80396;PMS5003;69721;55.894;-3.052;2023-11-21T06:14:18;2;1;
80396;PMS5003;69721;55.894;-3.052;2023-11-21T06:16:44;4;2;
80396;PMS5003;69721;55.894;-3.052;2023-11-21T06:19:09;1;1;
80396;PMS5003;69721;55.894;-3.052;2023-11-21T06:21:34;2;1;
80396;PMS5003;69721;55.894;-3.052;2023-11-21T06:24:00;2;1;
80396;PMS5003;69721;55.894;-3.052;2023-11-21T06:26:25;0;0;
80396;PMS5003;69721;55.894;-3.052;2023-11-21T06:28:52;2;2;
80396;PMS5003;69721;55.894;-3.052;2023-11-21T06:31:17;2;2;
80396;PMS5003;69721;55.894;-3.052;2023-11-21T06:33:43;1;0;
80396;PMS5003;69721;55.894;-3.052;2023-11-21T06:36:09;3;0;
80396;PMS5003;69721;55.894;-3.052;2023-11-21T06:38:34;1;1;
80396;PMS5003;69721;55.894;-3.052;2023-11-21T06:40:59;1;1;
80396;PMS5003;69721;55.894;-3.052;2023-11-21T06:43:25;2;1;
80396;PMS5003;69721;55.894;-3.052;2023-11-21T06:45:50;1;1;
80396;PMS5003;69721;55.894;-3.052;2023-11-21T06:48:17;1;1;
80396;PMS5003;69721;55.894;-3.052;2023-11-21T06:50:42;2;2;
80396;PMS5003;69721;55.894;-3.052;2023-11-21T06:53:08;2;0;
80396;PMS5003;69721;55.894;-3.052;2023-11-21T06:55:33;2;1;
80396;PMS5003;69721;55.894;-3.052;2023-11-21T06:57:59;3;1;
80396;PMS5003;69721;55.894;-3.052;2023-11-21T07:00:24;2;2;
80396;PMS5003;69721;55.894;-3.052;2023-11-21T07:02:50;1;1;
80396;PMS5003;69721;55.894;-3.052;2023-11-21T07:05:16;2;1;
80396;PMS5003;69721;55.894;-3.052;2023-11-21T07:07:41;3;1;
80396;PMS5003;69721;55.894;-3.052;2023-11-21T07:10:07;1;1;
80396;PMS5003;69721;55.894;-3.052;2023-11-21T07:12:32;2;1;
80396;PMS5003;69721;55.894;-3.052;2023-11-21T07:14:58;4;2;
80396;PMS5003;69721;55.894;-3.052;2023-11-21T07:17:23;5;3;
80396;PMS5003;69721;55.894;-3.052;2023-11-21T07:19:49;1;1;
80396;PMS5003;69721;55.894;-3.052;2023-11-21T07:22:14;6;4;
80396;PMS5003;69721;55.894;-3.052;2023-11-21T07:24:40;4;2;
80396;PMS5003;69721;55.894;-3.052;2023-11-21T07:27:05;1;1;
80396;PMS5003;69721;55.894;-3.052;2023-11-21T07:29:31;2;2;
80396;PMS5003;69721;55.894;-3.052;2023-11-21T07:31:56;3;2;
80396;PMS5003;69721;55.894;-3.052;2023-11-21T07:34:22;2;2;
80396;PMS5003;69721;55.894;-3.052;2023-11-21T07:36:49;3;3;
80396;PMS5003;69721;55.894;-3.052;2023-11-21T07:39:14;1;1;
80396;PMS5003;69721;55.894;-3.052;2023-11-21T07:41:40;28;24;
80396;PMS5003;69721;55.894;-3.052;2023-11-21T07:44:05;15;10;
80396;PMS5003;69721;55.894;-3.052;2023-11-21T07:46:31;20;14;
80396;PMS5003;69721;55.894;-3.052;2023-11-21T07:48:56;12;6;
80396;PMS5003;69721;55.894;-3.052;2023-11-21T07:51:22;7;4;
80396;PMS5003;69721;55.894;-3.052;2023-11-21T07:53:47;5;5;
80396;PMS5003;69721;55.894;-3.052;2023-11-21T07:56:13;5;2;
80396;PMS5003;69721;55.894;-3.052;2023-11-21T07:58:38;7;4;
80396;PMS5003;69721;55.894;-3.052;2023-11-21T08:01:04;4;2;
80396;PMS5003;69721;55.894;-3.052;2023-11-21T08:03:29;3;3;
80396;PMS5003;69721;55.894;-3.052;2023-11-21T08:05:55;5;5;
80396;PMS5003;69721;55.894;-3.052;2023-11-21T08:08:20;4;4;
80396;PMS5003;69721;55.894;-3.052;2023-11-21T08:10:46;5;5;
80396;PMS5003;69721;55.894;-3.052;2023-11-21T08:13:11;10;6;
80396;PMS5003;69721;55.894;-3.052;2023-11-21T08:15:37;10;8;
80396;PMS5003;69721;55.894;-3.052;2023-11-21T08:18:02;10;7;
80396;PMS5003;69721;55.894;-3.052;2023-11-21T08:20:28;5;3;
80396;PMS5003;69721;55.894;-3.052;2023-11-21T08:22:54;10;6;
80396;PMS5003;69721;55.894;-3.052;2023-11-21T08:25:19;9;4;
80396;PMS5003;69721;55.894;-3.052;2023-11-21T08:27:45;6;3;
80396;PMS5003;69721;55.894;-3.052;2023-11-21T08:30:11;3;3;
80396;PMS5003;69721;55.894;-3.052;2023-11-21T08:32:36;8;5;
80396;PMS5003;69721;55.894;-3.052;2023-11-21T08:35:01;7;4;
80396;PMS5003;69721;55.894;-3.052;2023-11-21T08:37:27;2;2;
80396;PMS5003;69721;55.894;-3.052;2023-11-21T08:39:52;5;3;
80396;PMS5003;69721;55.894;-3.052;2023-11-21T08:42:17;15;12;
80396;PMS5003;69721;55.894;-3.052;2023-11-21T08:44:43;8;5;
80396;PMS5003;69721;55.894;-3.052;2023-11-21T08:47:09;6;4;
80396;PMS5003;69721;55.894;-3.052;2023-11-21T08:49:34;7;6;
80396;PMS5003;69721;55.894;-3.052;2023-11-21T08:52:00;10;8;
80396;PMS5003;69721;55.894;-3.052;2023-11-21T08:54:25;12;9;
80396;PMS5003;69721;55.894;-3.052;2023-11-21T08:56:51;11;6;
80396;PMS5003;69721;55.894;-3.052;2023-11-21T08:59:16;20;8;
80396;PMS5003;69721;55.894;-3.052;2023-11-21T09:01:42;12;10;
80396;PMS5003;69721;55.894;-3.052;2023-11-21T09:04:07;11;8;
80396;PMS5003;69721;55.894;-3.052;2023-11-21T09:06:33;10;5;
80396;PMS5003;69721;55.894;-3.052;2023-11-21T09:08:59;9;6;
80396;PMS5003;69721;55.894;-3.052;2023-11-21T09:11:24;10;6;
80396;PMS5003;69721;55.894;-3.052;2023-11-21T09:13:50;9;6;
80396;PMS5003;69721;55.894;-3.052;2023-11-21T09:16:15;9;6;
80396;PMS5003;69721;55.894;-3.052;2023-11-21T09:18:41;8;8;
80396;PMS5003;69721;55.894;-3.052;2023-11-21T09:21:06;4;4;
80396;PMS5003;69721;55.894;-3.052;2023-11-21T09:23:33;8;7;
80396;PMS5003;69721;55.894;-3.052;2023-11-21T09:25:58;6;6;
80396;PMS5003;69721;55.894;-3.052;2023-11-21T09:28:24;7;6;
80396;PMS5003;69721;55.894;-3.052;2023-11-21T09:30:49;9;5;
80396;PMS5003;69721;55.894;-3.052;2023-11-21T09:33:15;6;3;
80396;PMS5003;69721;55.894;-3.052;2023-11-21T09:35:40;5;5;
80396;PMS5003;69721;55.894;-3.052;2023-11-21T09:38:06;6;4;
80396;PMS5003;69721;55.894;-3.052;2023-11-21T09:40:32;5;4;
80396;PMS5003;69721;55.894;-3.052;2023-11-21T09:42:57;6;3;
80396;PMS5003;69721;55.894;-3.052;2023-11-21T09:45:24;6;4;
80396;PMS5003;69721;55.894;-3.052;2023-11-21T09:47:48;4;2;
80396;PMS5003;69721;55.894;-3.052;2023-11-21T09:50:14;8;8;
80396;PMS5003;69721;55.894;-3.052;2023-11-21T09:52:42;5;4;
80396;PMS5003;69721;55.894;-3.052;2023-11-21T09:55:06;6;4;
80396;PMS5003;69721;55.894;-3.052;2023-11-21T09:57:31;4;4;
80396;PMS5003;69721;55.894;-3.052;2023-11-21T09:59:56;6;5;
80396;PMS5003;69721;55.894;-3.052;2023-11-21T10:02:22;6;3;
80396;PMS5003;69721;55.894;-3.052;2023-11-21T10:04:47;3;3;
80396;PMS5003;69721;55.894;-3.052;2023-11-21T10:07:13;1;1;
80396;PMS5003;69721;55.894;-3.052;2023-11-21T10:09:38;3;3;
80396;PMS5003;69721;55.894;-3.052;2023-11-21T10:12:04;3;3;
80396;PMS5003;69721;55.894;-3.052;2023-11-21T10:14:29;5;3;
80396;PMS5003;69721;55.894;-3.052;2023-11-21T10:16:55;3;3;
80396;PMS5003;69721;55.894;-3.052;2023-11-21T10:19:20;3;3;
80396;PMS5003;69721;55.894;-3.052;2023-11-21T10:21:45;5;2;
80396;PMS5003;69721;55.894;-3.052;2023-11-21T10:24:11;5;3;
80396;PMS5003;69721;55.894;-3.052;2023-11-21T10:26:37;1;1;
80396;PMS5003;69721;55.894;-3.052;2023-11-21T10:29:03;1;1;
80396;PMS5003;69721;55.894;-3.052;2023-11-21T10:31:29;3;2;
80396;PMS5003;69721;55.894;-3.052;2023-11-21T10:33:54;4;3;
80396;PMS5003;69721;55.894;-3.052;2023-11-21T10:36:24;4;3;
80396;PMS5003;69721;55.894;-3.052;2023-11-21T10:38:45;2;2;
80396;PMS5003;69721;55.894;-3.052;2023-11-21T10:41:11;7;3;
80396;PMS5003;69721;55.894;-3.052;2023-11-21T10:43:36;5;2;
80396;PMS5003;69721;55.894;-3.052;2023-11-21T10:46:01;3;2;
80396;PMS5003;69721;55.894;-3.052;2023-11-21T10:48:27;1;1;
80396;PMS5003;69721;55.894;-3.052;2023-11-21T10:50:52;1;1;
80396;PMS5003;69721;55.894;-3.052;2023-11-21T10:53:18;6;5;
80396;PMS5003;69721;55.894;-3.052;2023-11-21T10:55:43;4;3;
80396;PMS5003;69721;55.894;-3.052;2023-11-21T10:58:09;4;1;
80396;PMS5003;69721;55.894;-3.052;2023-11-21T11:00:34;3;1;
80396;PMS5003;69721;55.894;-3.052;2023-11-21T11:03:00;3;1;
80396;PMS5003;69721;55.894;-3.052;2023-11-21T11:05:26;1;1;
80396;PMS5003;69721;55.894;-3.052;2023-11-21T11:07:51;5;2;
80396;PMS5003;69721;55.894;-3.052;2023-11-21T11:10:17;1;1;
80396;PMS5003;69721;55.894;-3.052;2023-11-21T11:12:42;0;0;
80396;PMS5003;69721;55.894;-3.052;2023-11-21T11:15:08;1;1;
80396;PMS5003;69721;55.894;-3.052;2023-11-21T11:17:34;1;1;
80396;PMS5003;69721;55.894;-3.052;2023-11-21T11:19:59;5;3;
80396;PMS5003;69721;55.894;-3.052;2023-11-21T11:22:35;0;0;
80396;PMS5003;69721;55.894;-3.052;2023-11-21T11:25:03;4;2;
80396;PMS5003;69721;55.894;-3.052;2023-11-21T11:27:19;2;2;
80396;PMS5003;69721;55.894;-3.052;2023-11-21T11:29:42;6;5;
80396;PMS5003;69721;55.894;-3.052;2023-11-21T11:32:09;1;1;
80396;PMS5003;69721;55.894;-3.052;2023-11-21T11:34:32;2;2;
80396;PMS5003;69721;55.894;-3.052;2023-11-21T11:36:59;1;1;
80396;PMS5003;69721;55.894;-3.052;2023-11-21T11:39:28;2;0;
80396;PMS5003;69721;55.894;-3.052;2023-11-21T11:41:48;3;1;
80396;PMS5003;69721;55.894;-3.052;2023-11-21T11:46:45;3;2;
80396;PMS5003;69721;55.894;-3.052;2023-11-21T11:49:10;1;1;
80396;PMS5003;69721;55.894;-3.052;2023-11-21T11:51:36;4;1;
80396;PMS5003;69721;55.894;-3.052;2023-11-21T11:54:02;3;1;
80396;PMS5003;69721;55.894;-3.052;2023-11-21T11:56:27;4;2;
80396;PMS5003;69721;55.894;-3.052;2023-11-21T11:58:53;2;2;
80396;PMS5003;69721;55.894;-3.052;2023-11-21T12:01:18;4;2;
80396;PMS5003;69721;55.894;-3.052;2023-11-21T12:03:44;5;2;
80396;PMS5003;69721;55.894;-3.052;2023-11-21T12:06:10;4;1;
80396;PMS5003;69721;55.894;-3.052;2023-11-21T12:08:35;3;1;
80396;PMS5003;69721;55.894;-3.052;2023-11-21T12:11:01;3;1;
80396;PMS5003;69721;55.894;-3.052;2023-11-21T12:13:26;2;2;
80396;PMS5003;69721;55.894;-3.052;2023-11-21T12:15:52;2;2;
80396;PMS5003;69721;55.894;-3.052;2023-11-21T12:18:17;1;1;
80396;PMS5003;69721;55.894;-3.052;2023-11-21T12:20:43;2;1;
80396;PMS5003;69721;55.894;-3.052;2023-11-21T12:23:08;1;0;
80396;PMS5003;69721;55.894;-3.052;2023-11-21T12:25:34;2;2;
80396;PMS5003;69721;55.894;-3.052;2023-11-21T12:27:59;1;1;
80396;PMS5003;69721;55.894;-3.052;2023-11-21T12:30:25;1;0;
80396;PMS5003;69721;55.894;-3.052;2023-11-21T12:32:51;2;0;
80396;PMS5003;69721;55.894;-3.052;2023-11-21T12:35:15;0;0;
80396;PMS5003;69721;55.894;-3.052;2023-11-21T12:37:41;2;2;
80396;PMS5003;69721;55.894;-3.052;2023-11-21T12:40:07;1;1;
80396;PMS5003;69721;55.894;-3.052;2023-11-21T12:42:32;1;1;
80396;PMS5003;69721;55.894;-3.052;2023-11-21T12:47:23;0;0;
80396;PMS5003;69721;55.894;-3.052;2023-11-21T12:49:50;4;2;
80396;PMS5003;69721;55.894;-3.052;2023-11-21T12:52:15;3;3;
80396;PMS5003;69721;55.894;-3.052;2023-11-21T12:54:40;3;1;
80396;PMS5003;69721;55.894;-3.052;2023-11-21T12:57:06;4;2;
80396;PMS5003;69721;55.894;-3.052;2023-11-21T12:59:31;3;1;
80396;PMS5003;69721;55.894;-3.052;2023-11-21T13:01:57;3;1;
80396;PMS5003;69721;55.894;-3.052;2023-11-21T13:06:48;1;1;
80396;PMS5003;69721;55.894;-3.052;2023-11-21T13:09:13;0;0;
80396;PMS5003;69721;55.894;-3.052;2023-11-21T13:11:39;2;2;
80396;PMS5003;69721;55.894;-3.052;2023-11-21T13:14:04;2;1;
80396;PMS5003;69721;55.894;-3.052;2023-11-21T13:16:29;6;2;
80396;PMS5003;69721;55.894;-3.052;2023-11-21T13:18:55;6;5;
80396;PMS5003;69721;55.894;-3.052;2023-11-21T13:21:20;2;0;
80396;PMS5003;69721;55.894;-3.052;2023-11-21T13:23:46;4;2;
80396;PMS5003;69721;55.894;-3.052;2023-11-21T13:26:11;2;1;
80396;PMS5003;69721;55.894;-3.052;2023-11-21T13:28:37;5;2;
80396;PMS5003;69721;55.894;-3.052;2023-11-21T13:31:03;5;2;
80396;PMS5003;69721;55.894;-3.052;2023-11-21T13:33:28;2;2;
80396;PMS5003;69721;55.894;-3.052;2023-11-21T13:35:53;2;2;
80396;PMS5003;69721;55.894;-3.052;2023-11-21T13:38:19;5;3;
80396;PMS5003;69721;55.894;-3.052;2023-11-21T13:40:46;2;2;
80396;PMS5003;69721;55.894;-3.052;2023-11-21T13:43:11;7;3;
80396;PMS5003;69721;55.894;-3.052;2023-11-21T13:45:36;3;3;
80396;PMS5003;69721;55.894;-3.052;2023-11-21T13:48:02;3;2;
80396;PMS5003;69721;55.894;-3.052;2023-11-21T13:50:27;3;1;
80396;PMS5003;69721;55.894;-3.052;2023-11-21T13:52:53;5;2;
80396;PMS5003;69721;55.894;-3.052;2023-11-21T13:55:18;2;1;
80396;PMS5003;69721;55.894;-3.052;2023-11-21T13:57:44;2;2;
80396;PMS5003;69721;55.894;-3.052;2023-11-21T14:00:09;4;1;
80396;PMS5003;69721;55.894;-3.052;2023-11-21T14:02:36;2;2;
80396;PMS5003;69721;55.894;-3.052;2023-11-21T14:05:02;3;2;
80396;PMS5003;69721;55.894;-3.052;2023-11-21T14:07:27;1;1;
80396;PMS5003;69721;55.894;-3.052;2023-11-21T14:09:53;2;2;
80396;PMS5003;69721;55.894;-3.052;2023-11-21T14:12:18;4;3;
80396;PMS5003;69721;55.894;-3.052;2023-11-21T14:14:44;6;5;
80396;PMS5003;69721;55.894;-3.052;2023-11-21T14:17:09;8;3;
80396;PMS5003;69721;55.894;-3.052;2023-11-21T14:19:35;2;2;
80396;PMS5003;69721;55.894;-3.052;2023-11-21T14:22:01;1;1;
80396;PMS5003;69721;55.894;-3.052;2023-11-21T14:24:26;3;2;
80396;PMS5003;69721;55.894;-3.052;2023-11-21T14:26:51;5;2;
80396;PMS5003;69721;55.894;-3.052;2023-11-21T14:29:18;4;2;
80396;PMS5003;69721;55.894;-3.052;2023-11-21T14:31:43;2;2;
80396;PMS5003;69721;55.894;-3.052;2023-11-21T14:34:08;7;3;
80396;PMS5003;69721;55.894;-3.052;2023-11-21T14:36:34;1;1;
80396;PMS5003;69721;55.894;-3.052;2023-11-21T14:38:59;4;1;
80396;PMS5003;69721;55.894;-3.052;2023-11-21T14:41:25;2;2;
80396;PMS5003;69721;55.894;-3.052;2023-11-21T14:43:50;1;1;
80396;PMS5003;69721;55.894;-3.052;2023-11-21T14:46:16;1;1;
80396;PMS5003;69721;55.894;-3.052;2023-11-21T14:48:41;3;2;
80396;PMS5003;69721;55.894;-3.052;2023-11-21T14:51:07;3;3;
80396;PMS5003;69721;55.894;-3.052;2023-11-21T14:53:32;4;3;
80396;PMS5003;69721;55.894;-3.052;2023-11-21T14:55:58;4;2;
80396;PMS5003;69721;55.894;-3.052;2023-11-21T14:58:23;2;1;
80396;PMS5003;69721;55.894;-3.052;2023-11-21T15:00:49;5;3;
80396;PMS5003;69721;55.894;-3.052;2023-11-21T15:03:14;5;3;
80396;PMS5003;69721;55.894;-3.052;2023-11-21T15:05:40;4;3;
80396;PMS5003;69721;55.894;-3.052;2023-11-21T15:08:05;3;3;
80396;PMS5003;69721;55.894;-3.052;2023-11-21T15:10:31;1;1;
80396;PMS5003;69721;55.894;-3.052;2023-11-21T15:12:56;2;1;
80396;PMS5003;69721;55.894;-3.052;2023-11-21T15:15:22;5;2;
80396;PMS5003;69721;55.894;-3.052;2023-11-21T15:17:47;2;2;
80396;PMS5003;69721;55.894;-3.052;2023-11-21T15:20:13;4;2;
80396;PMS5003;69721;55.894;-3.052;2023-11-21T15:22:38;5;3;
80396;PMS5003;69721;55.894;-3.052;2023-11-21T15:25:04;4;3;
80396;PMS5003;69721;55.894;-3.052;2023-11-21T15:27:29;3;3;
80396;PMS5003;69721;55.894;-3.052;2023-11-21T15:29:55;5;4;
80396;PMS5003;69721;55.894;-3.052;2023-11-21T15:32:20;6;5;
80396;PMS5003;69721;55.894;-3.052;2023-11-21T15:34:48;3;3;
80396;PMS5003;69721;55.894;-3.052;2023-11-21T15:37:13;4;3;
80396;PMS5003;69721;55.894;-3.052;2023-11-21T15:39:39;5;5;
80396;PMS5003;69721;55.894;-3.052;2023-11-21T15:42:04;6;6;
80396;PMS5003;69721;55.894;-3.052;2023-11-21T15:44:30;6;4;
80396;PMS5003;69721;55.894;-3.052;2023-11-21T15:46:55;5;3;
80396;PMS5003;69721;55.894;-3.052;2023-11-21T15:49:21;6;6;
80396;PMS5003;69721;55.894;-3.052;2023-11-21T15:51:47;7;5;
80396;PMS5003;69721;55.894;-3.052;2023-11-21T15:54:13;5;4;
80396;PMS5003;69721;55.894;-3.052;2023-11-21T15:56:38;4;3;
80396;PMS5003;69721;55.894;-3.052;2023-11-21T15:59:04;5;3;
80396;PMS5003;69721;55.894;-3.052;2023-11-21T16:01:30;6;4;
80396;PMS5003;69721;55.894;-3.052;2023-11-21T16:03:55;4;2;
80396;PMS5003;69721;55.894;-3.052;2023-11-21T16:06:21;7;4;
80396;PMS5003;69721;55.894;-3.052;2023-11-21T16:08:46;5;4;
80396;PMS5003;69721;55.894;-3.052;2023-11-21T16:11:12;6;4;
80396;PMS5003;69721;55.894;-3.052;2023-11-21T16:13:38;5;5;
80396;PMS5003;69721;55.894;-3.052;2023-11-21T16:16:04;3;3;
80396;PMS5003;69721;55.894;-3.052;2023-11-21T16:18:29;2;2;
80396;PMS5003;69721;55.894;-3.052;2023-11-21T16:20:55;4;4;
80396;PMS5003;69721;55.894;-3.052;2023-11-21T16:23:20;4;3;
80396;PMS5003;69721;55.894;-3.052;2023-11-21T16:25:46;2;2;
80396;PMS5003;69721;55.894;-3.052;2023-11-21T16:28:11;5;5;
80396;PMS5003;69721;55.894;-3.052;2023-11-21T16:30:37;5;5;